Terminal Aerodrome Forecast
Issued by NWS Twin Cities, MN

Home | Current Version | Previous Version | Graphics & Text | Print | Product List | Glossary On
Versions: 1 2 3 4 5 6 7 8 9 10 11 12 13 14 15 16 17 18 19 20 21 22 23 24 25 26 27 28 29 30
000
FTUS43 KMPX 210430 AAC
TAFMSP
TAF AMD
KMSP 210430Z 2105/2206 27012KT P6SM OVC009
     FM210700 28009KT P6SM SCT010
     FM210900 21003KT 4SM BR SCT015
      TEMPO 2110/2114 1SM BR SCT002
     FM211400 18008KT P6SM SCT250
     FM220000 21004KT P6SM SCT250=

USA.gov is the U.S. government's official web portal to all federal, state and local government web resources and services.